sensor_id;sensor_type;location;lat;lon;timestamp;pressure;altitude;pressure_sealevel;temperature;humidity
1652;BME280;823;49.028;8.454;2023-04-19T00:04:50;101054.59;;;14.22;51.16
1652;BME280;823;49.028;8.454;2023-04-19T00:09:50;101053.00;;;14.19;51.14
1652;BME280;823;49.028;8.454;2023-04-19T00:14:50;101055.28;;;14.03;51.64
1652;BME280;823;49.028;8.454;2023-04-19T00:19:51;101062.19;;;14.28;51.19
1652;BME280;823;49.028;8.454;2023-04-19T00:24:52;101050.78;;;14.08;51.53
1652;BME280;823;49.028;8.454;2023-04-19T00:29:52;101054.09;;;14.12;51.46
1652;BME280;823;49.028;8.454;2023-04-19T00:34:52;101063.50;;;14.16;51.13
1652;BME280;823;49.028;8.454;2023-04-19T00:39:53;101061.50;;;14.23;51.40
1652;BME280;823;49.028;8.454;2023-04-19T00:44:53;101059.03;;;14.20;51.27
1652;BME280;823;49.028;8.454;2023-04-19T00:49:54;101048.63;;;14.20;51.01
1652;BME280;823;49.028;8.454;2023-04-19T00:54:54;101038.91;;;14.01;51.16
1652;BME280;823;49.028;8.454;2023-04-19T00:59:56;101043.56;;;13.91;51.78
1652;BME280;823;49.028;8.454;2023-04-19T01:04:57;101043.03;;;14.07;51.27
1652;BME280;823;49.028;8.454;2023-04-19T01:09:58;101044.13;;;14.01;51.42
1652;BME280;823;49.028;8.454;2023-04-19T01:14:58;101041.47;;;13.77;52.10
1652;BME280;823;49.028;8.454;2023-04-19T01:20:02;101029.06;;;13.86;51.90
1652;BME280;823;49.028;8.454;2023-04-19T01:25:06;101025.22;;;13.96;51.77
1652;BME280;823;49.028;8.454;2023-04-19T01:30:07;101033.25;;;13.90;51.77
1652;BME280;823;49.028;8.454;2023-04-19T01:35:07;101026.97;;;13.95;51.81
1652;BME280;823;49.028;8.454;2023-04-19T01:40:10;101021.03;;;13.92;52.02
1652;BME280;823;49.028;8.454;2023-04-19T01:45:11;101013.81;;;13.76;52.30
1652;BME280;823;49.028;8.454;2023-04-19T01:50:11;101013.81;;;13.76;52.22
1652;BME280;823;49.028;8.454;2023-04-19T01:55:12;101001.72;;;13.75;52.29
1652;BME280;823;49.028;8.454;2023-04-19T02:00:12;101004.53;;;13.93;51.28
1652;BME280;823;49.028;8.454;2023-04-19T02:05:14;101005.66;;;13.86;52.08
1652;BME280;823;49.028;8.454;2023-04-19T02:10:14;100997.06;;;13.60;52.46
1652;BME280;823;49.028;8.454;2023-04-19T02:15:15;100993.78;;;13.78;51.99
1652;BME280;823;49.028;8.454;2023-04-19T02:20:15;100991.31;;;13.75;52.17
1652;BME280;823;49.028;8.454;2023-04-19T02:25:15;100992.66;;;13.86;51.81
1652;BME280;823;49.028;8.454;2023-04-19T02:30:16;100993.47;;;13.88;51.98
1652;BME280;823;49.028;8.454;2023-04-19T02:35:16;100984.97;;;13.59;52.38
1652;BME280;823;49.028;8.454;2023-04-19T02:40:17;100990.13;;;13.84;51.65
1652;BME280;823;49.028;8.454;2023-04-19T02:45:17;100981.81;;;13.74;51.91
1652;BME280;823;49.028;8.454;2023-04-19T02:50:17;100972.03;;;13.81;51.76
1652;BME280;823;49.028;8.454;2023-04-19T02:55:18;100975.59;;;13.78;51.67
1652;BME280;823;49.028;8.454;2023-04-19T03:00:18;100972.03;;;13.81;51.67
1652;BME280;823;49.028;8.454;2023-04-19T03:05:18;100968.34;;;13.87;51.70
1652;BME280;823;49.028;8.454;2023-04-19T03:10:19;100968.41;;;13.85;51.74
1652;BME280;823;49.028;8.454;2023-04-19T03:15:19;100960.31;;;13.69;51.84
1652;BME280;823;49.028;8.454;2023-04-19T03:20:20;100963.47;;;13.77;51.59
1652;BME280;823;49.028;8.454;2023-04-19T03:25:20;100961.13;;;13.71;51.85
1652;BME280;823;49.028;8.454;2023-04-19T03:30:20;100964.69;;;13.69;51.71
1652;BME280;823;49.028;8.454;2023-04-19T03:35:21;100966.50;;;13.67;52.32
1652;BME280;823;49.028;8.454;2023-04-19T03:40:25;100961.25;;;13.68;51.86
1652;BME280;823;49.028;8.454;2023-04-19T03:45:25;100959.44;;;13.70;51.56
1652;BME280;823;49.028;8.454;2023-04-19T03:50:26;100949.91;;;13.69;51.67
1652;BME280;823;49.028;8.454;2023-04-19T03:55:26;100943.81;;;13.70;51.61
1652;BME280;823;49.028;8.454;2023-04-19T04:00:26;100950.72;;;13.71;51.70
1652;BME280;823;49.028;8.454;2023-04-19T04:05:27;100944.97;;;13.63;51.93
1652;BME280;823;49.028;8.454;2023-04-19T04:10:28;100944.06;;;13.64;51.61
1652;BME280;823;49.028;8.454;2023-04-19T04:15:28;100944.28;;;13.58;51.79
1652;BME280;823;49.028;8.454;2023-04-19T04:20:28;100951.13;;;13.60;51.65
1652;BME280;823;49.028;8.454;2023-04-19T04:25:29;100950.28;;;13.60;51.72
1652;BME280;823;49.028;8.454;2023-04-19T04:30:32;100946.59;;;13.66;51.78
1652;BME280;823;49.028;8.454;2023-04-19T04:35:33;100952.81;;;13.61;51.80
1652;BME280;823;49.028;8.454;2023-04-19T04:40:34;100947.44;;;13.66;51.46
1652;BME280;823;49.028;8.454;2023-04-19T04:45:34;100944.84;;;13.66;51.62
1652;BME280;823;49.028;8.454;2023-04-19T04:50:36;100948.81;;;13.53;51.93
1652;BME280;823;49.028;8.454;2023-04-19T04:55:37;100953.78;;;13.59;51.92
1652;BME280;823;49.028;8.454;2023-04-19T05:00:37;100951.50;;;13.50;52.10
1652;BME280;823;49.028;8.454;2023-04-19T05:05:37;100951.56;;;13.48;51.96
1652;BME280;823;49.028;8.454;2023-04-19T05:10:38;100953.66;;;13.62;51.70
1652;BME280;823;49.028;8.454;2023-04-19T05:15:38;100946.59;;;13.42;52.06
1652;BME280;823;49.028;8.454;2023-04-19T05:20:38;100950.88;;;13.43;51.76
1652;BME280;823;49.028;8.454;2023-04-19T05:25:39;100963.84;;;13.44;51.50
1652;BME280;823;49.028;8.454;2023-04-19T05:30:40;100965.44;;;13.49;51.69
1652;BME280;823;49.028;8.454;2023-04-19T05:35:40;100959.66;;;13.40;51.62
1652;BME280;823;49.028;8.454;2023-04-19T05:40:40;100961.91;;;13.24;52.14
1652;BME280;823;49.028;8.454;2023-04-19T05:45:41;100959.09;;;13.31;51.75
1652;BME280;823;49.028;8.454;2023-04-19T05:50:41;100966.53;;;13.41;51.70
1652;BME280;823;49.028;8.454;2023-04-19T05:55:41;100968.59;;;13.57;51.07
1652;BME280;823;49.028;8.454;2023-04-19T06:00:43;100970.97;;;13.63;51.70
1652;BME280;823;49.028;8.454;2023-04-19T06:05:43;100976.03;;;13.66;51.73
1652;BME280;823;49.028;8.454;2023-04-19T06:10:44;100975.78;;;13.74;51.21
1652;BME280;823;49.028;8.454;2023-04-19T06:15:47;100979.25;;;13.96;50.46
1652;BME280;823;49.028;8.454;2023-04-19T06:20:48;100984.00;;;14.09;51.01
1652;BME280;823;49.028;8.454;2023-04-19T06:25:48;100975.03;;;14.38;49.88
1652;BME280;823;49.028;8.454;2023-04-19T06:30:48;100982.78;;;14.62;49.01
1652;BME280;823;49.028;8.454;2023-04-19T06:35:49;100971.53;;;14.84;48.95
1652;BME280;823;49.028;8.454;2023-04-19T06:40:49;100970.22;;;14.73;49.39
1652;BME280;823;49.028;8.454;2023-04-19T06:45:59;100979.22;;;14.87;49.12
1652;BME280;823;49.028;8.454;2023-04-19T06:51:00;100981.03;;;14.85;49.20
1652;BME280;823;49.028;8.454;2023-04-19T06:56:01;100978.97;;;14.93;48.10
1652;BME280;823;49.028;8.454;2023-04-19T07:01:03;100977.56;;;14.84;48.03
1652;BME280;823;49.028;8.454;2023-04-19T07:06:04;100974.88;;;14.87;48.43
1652;BME280;823;49.028;8.454;2023-04-19T07:11:04;100974.06;;;15.06;48.63
1652;BME280;823;49.028;8.454;2023-04-19T07:16:05;100966.47;;;15.01;48.88
1652;BME280;823;49.028;8.454;2023-04-19T07:21:06;100960.66;;;15.36;47.13
1652;BME280;823;49.028;8.454;2023-04-19T07:26:06;100962.13;;;15.81;46.78
1652;BME280;823;49.028;8.454;2023-04-19T07:31:07;100947.47;;;15.97;46.42
1652;BME280;823;49.028;8.454;2023-04-19T07:36:13;100949.22;;;15.97;46.70
1652;BME280;823;49.028;8.454;2023-04-19T07:41:13;100941.16;;;16.21;46.30
1652;BME280;823;49.028;8.454;2023-04-19T07:46:14;100944.56;;;16.23;45.37
1652;BME280;823;49.028;8.454;2023-04-19T07:51:17;100944.97;;;16.32;45.58
1652;BME280;823;49.028;8.454;2023-04-19T07:56:18;100942.66;;;16.61;45.00
1652;BME280;823;49.028;8.454;2023-04-19T08:01:19;100935.47;;;17.01;43.99
1652;BME280;823;49.028;8.454;2023-04-19T08:06:20;100933.09;;;17.30;44.76
1652;BME280;823;49.028;8.454;2023-04-19T08:11:20;100928.44;;;17.53;43.21
1652;BME280;823;49.028;8.454;2023-04-19T08:16:21;100922.34;;;17.52;43.79
1652;BME280;823;49.028;8.454;2023-04-19T08:21:22;100919.34;;;17.60;43.62
1652;BME280;823;49.028;8.454;2023-04-19T08:26:22;100915.28;;;17.70;42.97
1652;BME280;823;49.028;8.454;2023-04-19T08:31:22;100910.97;;;18.17;41.41
1652;BME280;823;49.028;8.454;2023-04-19T08:36:23;100916.16;;;18.03;41.16
1652;BME280;823;49.028;8.454;2023-04-19T08:41:23;100909.22;;;18.48;41.37
1652;BME280;823;49.028;8.454;2023-04-19T08:46:25;100910.69;;;18.83;40.47
1652;BME280;823;49.028;8.454;2023-04-19T08:51:26;100913.66;;;18.93;39.51
1652;BME280;823;49.028;8.454;2023-04-19T08:56:29;100907.84;;;18.57;39.23
1652;BME280;823;49.028;8.454;2023-04-19T09:01:31;100909.19;;;18.34;39.58
1652;BME280;823;49.028;8.454;2023-04-19T09:06:39;100907.06;;;18.25;41.42
1652;BME280;823;49.028;8.454;2023-04-19T09:11:39;100902.66;;;17.95;41.01
1652;BME280;823;49.028;8.454;2023-04-19T09:16:40;100896.13;;;17.70;41.88
1652;BME280;823;49.028;8.454;2023-04-19T09:21:41;100900.66;;;17.34;42.76
1652;BME280;823;49.028;8.454;2023-04-19T09:26:52;100901.25;;;17.40;42.94
1652;BME280;823;49.028;8.454;2023-04-19T09:31:57;100907.84;;;17.13;43.28
1652;BME280;823;49.028;8.454;2023-04-19T09:37:11;100892.09;;;17.15;43.24
1652;BME280;823;49.028;8.454;2023-04-19T09:42:12;100882.84;;;17.25;43.50
1652;BME280;823;49.028;8.454;2023-04-19T09:47:33;100880.81;;;17.30;43.27
1652;BME280;823;49.028;8.454;2023-04-19T09:52:34;100871.91;;;17.50;42.17
1652;BME280;823;49.028;8.454;2023-04-19T09:57:35;100866.84;;;17.79;41.64
1652;BME280;823;49.028;8.454;2023-04-19T10:02:36;100856.53;;;18.08;41.31
1652;BME280;823;49.028;8.454;2023-04-19T10:07:37;100854.41;;;18.15;41.02
1652;BME280;823;49.028;8.454;2023-04-19T10:12:38;100848.03;;;18.35;40.50
1652;BME280;823;49.028;8.454;2023-04-19T10:17:38;100844.78;;;18.46;40.68
1652;BME280;823;49.028;8.454;2023-04-19T10:22:39;100835.09;;;18.62;40.19
1652;BME280;823;49.028;8.454;2023-04-19T10:27:42;100840.41;;;18.75;39.88
1652;BME280;823;49.028;8.454;2023-04-19T10:32:52;100833.50;;;18.74;40.13
1652;BME280;823;49.028;8.454;2023-04-19T10:38:07;100837.31;;;18.83;39.97
1652;BME280;823;49.028;8.454;2023-04-19T10:53:51;100808.41;;;18.55;40.75
1652;BME280;823;49.028;8.454;2023-04-19T11:04:14;100795.56;;;18.36;41.00
1652;BME280;823;49.028;8.454;2023-04-19T11:09:28;100796.78;;;18.45;41.58
1652;BME280;823;49.028;8.454;2023-04-19T11:14:41;100789.84;;;18.30;41.82
1652;BME280;823;49.028;8.454;2023-04-19T11:25:08;100776.44;;;17.90;42.15
1652;BME280;823;49.028;8.454;2023-04-19T11:30:11;100776.84;;;17.82;42.53
1652;BME280;823;49.028;8.454;2023-04-19T11:35:13;100770.56;;;17.70;43.33
1652;BME280;823;49.028;8.454;2023-04-19T11:40:16;100766.84;;;17.58;43.40
1652;BME280;823;49.028;8.454;2023-04-19T11:45:32;100763.59;;;17.55;44.12
1652;BME280;823;49.028;8.454;2023-04-19T11:50:37;100763.84;;;17.18;45.95
1652;BME280;823;49.028;8.454;2023-04-19T11:55:38;100753.97;;;16.91;47.18
1652;BME280;823;49.028;8.454;2023-04-19T12:00:45;100758.69;;;16.33;50.13
1652;BME280;823;49.028;8.454;2023-04-19T12:05:55;100762.69;;;16.23;51.20
1652;BME280;823;49.028;8.454;2023-04-19T12:10:57;100750.28;;;16.11;51.72
1652;BME280;823;49.028;8.454;2023-04-19T12:15:58;100747.81;;;16.08;52.15
1652;BME280;823;49.028;8.454;2023-04-19T12:20:59;100750.34;;;16.09;52.22
1652;BME280;823;49.028;8.454;2023-04-19T12:26:03;100745.97;;;16.10;51.84
1652;BME280;823;49.028;8.454;2023-04-19T12:31:04;100735.59;;;15.91;52.45
1652;BME280;823;49.028;8.454;2023-04-19T12:36:05;100744.03;;;15.96;52.05
1652;BME280;823;49.028;8.454;2023-04-19T12:41:05;100744.38;;;15.90;51.59
1652;BME280;823;49.028;8.454;2023-04-19T12:46:06;100741.06;;;15.86;51.91
1652;BME280;823;49.028;8.454;2023-04-19T12:51:06;100739.09;;;15.72;51.45
1652;BME280;823;49.028;8.454;2023-04-19T12:56:06;100741.19;;;15.46;51.99
1652;BME280;823;49.028;8.454;2023-04-19T13:01:07;100740.31;;;15.65;51.81
1652;BME280;823;49.028;8.454;2023-04-19T13:06:08;100728.00;;;15.86;51.30
1652;BME280;823;49.028;8.454;2023-04-19T13:11:08;100725.78;;;15.96;51.44
1652;BME280;823;49.028;8.454;2023-04-19T13:16:08;100716.13;;;15.98;51.88
1652;BME280;823;49.028;8.454;2023-04-19T13:21:10;100717.13;;;15.95;52.46
1652;BME280;823;49.028;8.454;2023-04-19T13:26:10;100713.97;;;15.89;53.11
1652;BME280;823;49.028;8.454;2023-04-19T13:31:11;100712.16;;;15.54;54.54
1652;BME280;823;49.028;8.454;2023-04-19T13:36:11;100709.47;;;15.56;54.68
1652;BME280;823;49.028;8.454;2023-04-19T13:41:11;100710.63;;;15.50;54.54
1652;BME280;823;49.028;8.454;2023-04-19T13:46:12;100698.66;;;15.46;55.38
1652;BME280;823;49.028;8.454;2023-04-19T13:51:12;100686.41;;;15.48;56.01
1652;BME280;823;49.028;8.454;2023-04-19T13:56:13;100680.69;;;15.22;56.79
1652;BME280;823;49.028;8.454;2023-04-19T14:01:14;100665.97;;;15.02;58.04
1652;BME280;823;49.028;8.454;2023-04-19T14:06:14;100649.47;;;14.84;58.23
1652;BME280;823;49.028;8.454;2023-04-19T14:11:16;100650.88;;;14.72;58.08
1652;BME280;823;49.028;8.454;2023-04-19T14:16:17;100648.13;;;14.94;57.77
1652;BME280;823;49.028;8.454;2023-04-19T14:21:17;100646.84;;;15.03;57.16
1652;BME280;823;49.028;8.454;2023-04-19T14:26:18;100627.97;;;15.35;57.73
1652;BME280;823;49.028;8.454;2023-04-19T14:31:18;100620.53;;;15.44;55.79
1652;BME280;823;49.028;8.454;2023-04-19T14:36:18;100619.69;;;15.61;54.76
1652;BME280;823;49.028;8.454;2023-04-19T14:41:19;100616.88;;;15.66;53.01
1652;BME280;823;49.028;8.454;2023-04-19T14:46:19;100606.72;;;15.60;51.90
1652;BME280;823;49.028;8.454;2023-04-19T14:51:19;100600.66;;;15.77;52.86
1652;BME280;823;49.028;8.454;2023-04-19T14:56:20;100590.03;;;15.81;51.92
1652;BME280;823;49.028;8.454;2023-04-19T15:01:20;100573.75;;;15.94;51.38
1652;BME280;823;49.028;8.454;2023-04-19T15:06:22;100574.53;;;16.12;50.78
1652;BME280;823;49.028;8.454;2023-04-19T15:11:22;100567.41;;;16.31;49.46
1652;BME280;823;49.028;8.454;2023-04-19T15:16:22;100568.75;;;16.55;47.75
1652;BME280;823;49.028;8.454;2023-04-19T15:21:23;100555.25;;;16.94;46.77
1652;BME280;823;49.028;8.454;2023-04-19T15:26:23;100559.88;;;16.73;46.99
1652;BME280;823;49.028;8.454;2023-04-19T15:31:24;100561.06;;;16.99;47.06
1652;BME280;823;49.028;8.454;2023-04-19T15:36:26;100559.75;;;17.07;46.16
1652;BME280;823;49.028;8.454;2023-04-19T15:41:27;100559.28;;;17.00;46.56
1652;BME280;823;49.028;8.454;2023-04-19T15:46:27;100565.50;;;17.13;46.96
1652;BME280;823;49.028;8.454;2023-04-19T15:51:27;100565.31;;;17.16;46.00
1652;BME280;823;49.028;8.454;2023-04-19T15:56:28;100560.97;;;17.01;45.86
1652;BME280;823;49.028;8.454;2023-04-19T16:01:28;100591.16;;;16.59;48.54
1652;BME280;823;49.028;8.454;2023-04-19T16:06:28;100609.63;;;15.19;51.10
1652;BME280;823;49.028;8.454;2023-04-19T16:11:29;100628.44;;;14.11;55.28
1652;BME280;823;49.028;8.454;2023-04-19T16:16:29;100627.41;;;13.53;58.99
1652;BME280;823;49.028;8.454;2023-04-19T16:21:32;100604.81;;;13.33;58.91
1652;BME280;823;49.028;8.454;2023-04-19T16:26:32;100581.94;;;13.21;58.98
1652;BME280;823;49.028;8.454;2023-04-19T16:31:33;100571.63;;;12.97;58.39
1652;BME280;823;49.028;8.454;2023-04-19T16:36:33;100571.16;;;12.87;58.02
1652;BME280;823;49.028;8.454;2023-04-19T16:41:34;100573.19;;;13.01;57.39
1652;BME280;823;49.028;8.454;2023-04-19T16:46:34;100559.84;;;13.10;56.49
1652;BME280;823;49.028;8.454;2023-04-19T16:51:34;100554.44;;;13.37;56.17
1652;BME280;823;49.028;8.454;2023-04-19T16:56:35;100558.28;;;13.49;57.11
1652;BME280;823;49.028;8.454;2023-04-19T17:01:35;100549.16;;;13.61;58.03
1652;BME280;823;49.028;8.454;2023-04-19T17:06:35;100549.38;;;13.75;58.71
1652;BME280;823;49.028;8.454;2023-04-19T17:11:36;100553.19;;;13.87;58.84
1652;BME280;823;49.028;8.454;2023-04-19T17:16:36;100566.69;;;13.95;59.83
1652;BME280;823;49.028;8.454;2023-04-19T17:21:36;100573.25;;;14.04;60.13
1652;BME280;823;49.028;8.454;2023-04-19T17:26:37;100574.69;;;13.91;61.09
1652;BME280;823;49.028;8.454;2023-04-19T17:31:37;100570.00;;;13.99;60.93
1652;BME280;823;49.028;8.454;2023-04-19T17:36:37;100567.53;;;13.96;61.17
1652;BME280;823;49.028;8.454;2023-04-19T17:41:38;100572.88;;;13.93;61.31
1652;BME280;823;49.028;8.454;2023-04-19T17:46:38;100574.69;;;13.91;61.22
1652;BME280;823;49.028;8.454;2023-04-19T17:51:39;100580.63;;;13.74;60.94
1652;BME280;823;49.028;8.454;2023-04-19T17:56:39;100581.81;;;13.46;61.55
1652;BME280;823;49.028;8.454;2023-04-19T18:01:40;100575.00;;;13.43;61.09
1652;BME280;823;49.028;8.454;2023-04-19T18:06:40;100582.47;;;13.29;60.74
1652;BME280;823;49.028;8.454;2023-04-19T18:11:41;100589.63;;;13.24;60.39
1652;BME280;823;49.028;8.454;2023-04-19T18:16:41;100580.34;;;12.96;58.01
1652;BME280;823;49.028;8.454;2023-04-19T18:21:41;100582.94;;;12.96;56.49
1652;BME280;823;49.028;8.454;2023-04-19T18:26:42;100596.56;;;12.79;54.26
1652;BME280;823;49.028;8.454;2023-04-19T18:31:42;100590.59;;;12.55;51.36
1652;BME280;823;49.028;8.454;2023-04-19T18:36:42;100596.38;;;12.39;49.30
1652;BME280;823;49.028;8.454;2023-04-19T18:41:43;100598.03;;;12.40;50.12
1652;BME280;823;49.028;8.454;2023-04-19T18:46:43;100597.59;;;12.29;47.90
1652;BME280;823;49.028;8.454;2023-04-19T18:51:44;100605.88;;;12.15;44.68
1652;BME280;823;49.028;8.454;2023-04-19T18:56:44;100609.66;;;12.06;42.87
1652;BME280;823;49.028;8.454;2023-04-19T19:01:45;100616.19;;;12.17;42.91
1652;BME280;823;49.028;8.454;2023-04-19T19:06:46;100622.94;;;12.21;42.13
1652;BME280;823;49.028;8.454;2023-04-19T19:11:47;100626.34;;;12.23;40.83
1652;BME280;823;49.028;8.454;2023-04-19T19:16:47;100625.84;;;12.13;41.18
1652;BME280;823;49.028;8.454;2023-04-19T19:21:47;100631.31;;;12.29;39.75
1652;BME280;823;49.028;8.454;2023-04-19T19:26:48;100635.84;;;12.22;38.70
1652;BME280;823;49.028;8.454;2023-04-19T19:31:48;100642.31;;;12.36;38.53
1652;BME280;823;49.028;8.454;2023-04-19T19:36:48;100647.44;;;12.37;38.89
1652;BME280;823;49.028;8.454;2023-04-19T19:41:49;100637.13;;;12.36;39.81
1652;BME280;823;49.028;8.454;2023-04-19T19:46:49;100642.19;;;12.39;40.63
1652;BME280;823;49.028;8.454;2023-04-19T19:51:49;100642.38;;;12.34;42.53
1652;BME280;823;49.028;8.454;2023-04-19T19:56:50;100633.06;;;12.29;42.60
1652;BME280;823;49.028;8.454;2023-04-19T20:01:50;100643.13;;;12.13;41.19
1652;BME280;823;49.028;8.454;2023-04-19T20:06:51;100649.53;;;12.02;41.60
1652;BME280;823;49.028;8.454;2023-04-19T20:11:52;100644.41;;;12.01;42.54
1652;BME280;823;49.028;8.454;2023-04-19T20:16:53;100644.00;;;11.86;41.97
1652;BME280;823;49.028;8.454;2023-04-19T20:21:53;100650.25;;;11.81;42.73
1652;BME280;823;49.028;8.454;2023-04-19T20:26:53;100642.59;;;11.51;40.60
1652;BME280;823;49.028;8.454;2023-04-19T20:31:54;100646.28;;;11.44;40.65
1652;BME280;823;49.028;8.454;2023-04-19T20:36:54;100644.50;;;11.46;41.67
1652;BME280;823;49.028;8.454;2023-04-19T20:41:55;100650.88;;;11.35;41.20
1652;BME280;823;49.028;8.454;2023-04-19T20:46:56;100644.63;;;11.14;40.91
1652;BME280;823;49.028;8.454;2023-04-19T20:51:57;100650.06;;;11.06;41.10
1652;BME280;823;49.028;8.454;2023-04-19T20:57:00;100650.44;;;10.94;41.16
1652;BME280;823;49.028;8.454;2023-04-19T21:02:03;100647.75;;;10.97;42.74
1652;BME280;823;49.028;8.454;2023-04-19T21:07:03;100641.06;;;10.90;43.09
1652;BME280;823;49.028;8.454;2023-04-19T21:12:04;100633.25;;;10.62;43.85
1652;BME280;823;49.028;8.454;2023-04-19T21:17:04;100647.66;;;10.41;45.05
1652;BME280;823;49.028;8.454;2023-04-19T21:22:05;100647.41;;;10.50;47.32
1652;BME280;823;49.028;8.454;2023-04-19T21:27:05;100637.56;;;10.30;46.70
1652;BME280;823;49.028;8.454;2023-04-19T21:32:05;100633.31;;;10.29;48.02
1652;BME280;823;49.028;8.454;2023-04-19T21:37:06;100630.94;;;10.21;47.92
1652;BME280;823;49.028;8.454;2023-04-19T21:42:06;100636.25;;;10.16;47.91
1652;BME280;823;49.028;8.454;2023-04-19T21:47:07;100637.97;;;10.16;49.61
1652;BME280;823;49.028;8.454;2023-04-19T21:52:08;100640.81;;;10.07;50.31
1652;BME280;823;49.028;8.454;2023-04-19T21:57:08;100632.25;;;10.04;50.33
1652;BME280;823;49.028;8.454;2023-04-19T22:02:10;100622.28;;;9.91;50.92
1652;BME280;823;49.028;8.454;2023-04-19T22:07:10;100627.72;;;9.80;51.10
1652;BME280;823;49.028;8.454;2023-04-19T22:12:16;100620.94;;;9.76;51.29
1652;BME280;823;49.028;8.454;2023-04-19T22:17:18;100622.03;;;9.67;50.24
1652;BME280;823;49.028;8.454;2023-04-19T22:22:19;100622.16;;;9.62;50.03
1652;BME280;823;49.028;8.454;2023-04-19T22:27:19;100615.38;;;9.58;49.28
1652;BME280;823;49.028;8.454;2023-04-19T22:32:20;100615.50;;;9.52;48.10
1652;BME280;823;49.028;8.454;2023-04-19T22:37:20;100599.19;;;9.51;49.63
1652;BME280;823;49.028;8.454;2023-04-19T22:42:20;100597.44;;;9.52;50.29
1652;BME280;823;49.028;8.454;2023-04-19T22:47:21;100596.69;;;9.47;49.92
1652;BME280;823;49.028;8.454;2023-04-19T22:52:21;100590.78;;;9.43;48.50
1652;BME280;823;49.028;8.454;2023-04-19T22:57:22;100579.91;;;9.30;48.24
1652;BME280;823;49.028;8.454;2023-04-19T23:02:22;100572.22;;;9.27;48.74
1652;BME280;823;49.028;8.454;2023-04-19T23:07:22;100569.66;;;9.27;49.70
1652;BME280;823;49.028;8.454;2023-04-19T23:12:22;100566.28;;;9.25;50.64
1652;BME280;823;49.028;8.454;2023-04-19T23:17:23;100561.19;;;9.22;51.13
1652;BME280;823;49.028;8.454;2023-04-19T23:22:24;100555.94;;;9.25;51.09
1652;BME280;823;49.028;8.454;2023-04-19T23:27:24;100545.00;;;9.15;51.20
1652;BME280;823;49.028;8.454;2023-04-19T23:32:24;100535.81;;;9.03;51.69
1652;BME280;823;49.028;8.454;2023-04-19T23:37:25;100541.09;;;8.99;51.34
1652;BME280;823;49.028;8.454;2023-04-19T23:42:25;100530.03;;;8.94;51.79
1652;BME280;823;49.028;8.454;2023-04-19T23:47:26;100526.75;;;8.87;52.21
1652;BME280;823;49.028;8.454;2023-04-19T23:52:26;100527.81;;;8.78;52.55
1652;BME280;823;49.028;8.454;2023-04-19T23:57:26;100529.63;;;8.75;53.43
